Latest Weather Observations for Nuriootpa

IDS60801

Issued at 12:01 pm CDT Tuesday 9 February 2016 (issued every 30 minutes, with the page automatically refreshed every 10 minutes)

About weather observations | Map of weather stations | Latest weather observations for SA | Other Formats
Station Details ID: 023373 Name: NURIOOTPA VITICULTURAL Lat: -34.48 Lon: 139.01 Height: 275.0 m
Data from the previous 72 hours. | See also: Recent months at Nuriootpa
Date/Time
CDT
Temp
°C
App
Temp
°C
Dew
Point
Rel
Hum
%
Delta-T
°C
Wind Press
QNH
hPa
Press
MSL
hPa
Rain
since 9 am
mm
Dir
 
Spd
km/h
Gust
km/h
Spd
kts
Gust
kts
09/11:30am 26.1 23.0 10.3 37 8.9 ENE 17 24 9 13 1020.0 1018.9 0.0
09/11:00am 24.8 21.6 10.1 39 8.2 ENE 17 26 9 14 1020.4 1019.3 0.0
09/10:30am 23.9 21.2 11.6 46 7.0 ENE 17 26 9 14 1020.6 1019.5 0.0
09/10:00am 23.4 25.1 23.4 100 0.0 ENE 20 28 11 15 1020.6 1019.5 0.0
09/09:30am 22.3 24.0 22.3 100 0.0 ENE 17 26 9 14 1020.5 1019.4 0.0
09/09:00am 21.0 22.0 21.0 100 0.0 E 17 24 9 13 1020.6 1019.5 0.0
09/08:30am 19.3 19.1 19.3 100 0.0 E 19 30 10 16 1020.4 1019.3 0.0
09/08:00am 18.3 19.2 18.3 100 0.0 E 11 17 6 9 1020.5 1019.4 0.0
09/07:30am 16.8 16.3 16.8 100 0.0 E 15 24 8 13 1020.2 1019.1 0.0
09/07:00am 15.8 14.9 15.8 100 0.0 E 15 22 8 12 1020.0 1018.9 0.0
09/06:30am 15.8 15.3 15.8 100 0.0 E 13 20 7 11 1019.9 1018.8 0.0
09/06:00am 15.9 15.4 15.9 100 0.0 E 13 19 7 10 1019.7 1018.6 0.0
09/05:30am 16.0 15.9 16.0 100 0.0 E 11 19 6 10 1019.6 1018.5 0.0
09/05:00am 16.1 16.4 16.1 100 0.0 E 9 19 5 10 1019.7 1018.6 0.0
09/04:30am 16.5 15.5 16.5 100 0.0 ESE 17 28 9 15 1019.4 1018.3 0.0
09/04:00am 16.6 15.2 16.6 100 0.0 ESE 19 32 10 17 1019.3 1018.2 0.0
09/03:30am 16.9 15.6 16.9 100 0.0 ESE 19 33 10 18 1019.5 1018.4 0.0
09/03:00am 17.1 15.7 17.1 100 0.0 ESE 20 33 11 18 1019.5 1018.4 0.0
09/02:30am 17.4 15.8 17.4 100 0.0 ESE 22 33 12 18 1019.6 1018.5 0.0
09/02:00am 17.8 16.3 17.8 100 0.0 SE 22 35 12 19 1019.8 1018.7 0.0
09/01:30am 17.8 16.7 17.8 100 0.0 SE 20 32 11 17 1020.0 1018.9 0.0
09/01:00am 17.9 16.9 17.9 100 0.0 SE 20 33 11 18 1020.1 1019.0 0.0
09/12:30am 18.1 17.1 17.6 97 0.3 SE 19 32 10 17 1020.4 1019.3 0.0
09/12:00am 18.3 16.1 14.3 77 2.3 SE 19 30 10 16 1020.4 1019.3 0.0
 
Date/Time
CDT
Temp
°C
App
Temp
°C
Dew
Point
Rel
Hum
%
Delta-T
°C
Wind Press
QNH
hPa
Press
MSL
hPa
Rain
since 9 am
mm
Dir
 
Spd
km/h
Gust
km/h
Spd
kts
Gust
kts
08/11:30pm 18.4 15.0 11.1 62 4.0 SE 20 32 11 17 1020.5 1019.4 0.0
08/11:00pm 18.6 14.7 10.7 60 4.3 SE 22 33 12 18 1020.6 1019.5 0.0
08/10:30pm 18.5 14.5 10.6 60 4.3 SE 22 35 12 19 1020.7 1019.6 0.0
08/10:00pm 18.7 14.3 10.4 58 4.5 SE 24 39 13 21 1020.6 1019.5 0.0
08/09:30pm 19.0 14.5 9.9 55 4.9 SE 24 39 13 21 1020.4 1019.3 0.0
08/09:00pm 19.4 14.8 9.5 52 5.3 SE 24 35 13 19 1020.3 1019.2 0.0
08/08:30pm 19.7 15.9 9.2 50 5.6 SE 19 28 10 15 1020.2 1019.1 0.0
08/08:00pm 20.8 16.7 7.8 43 6.8 SE 19 30 10 16 1020.1 1019.0 0.0
08/07:30pm 22.4 17.4 8.1 40 7.6 SE 24 39 13 21 1019.8 1018.7 0.0
08/07:00pm 23.7 18.4 6.9 34 8.8 SE 24 33 13 18 1019.4 1018.3 0.0
08/06:30pm 24.9 19.6 6.6 31 9.6 SE 24 35 13 19 1019.3 1018.2 0.0
08/06:00pm 26.2 21.0 7.1 29 10.2 SE 24 35 13 19 1019.4 1018.3 0.0
08/05:30pm 27.4 23.4 9.0 31 10.2 SE 20 32 11 17 1019.5 1018.4 0.0
08/05:00pm 28.1 24.3 9.1 30 10.6 ESE 19 30 10 16 1019.4 1018.3 0.0
08/04:30pm 28.6 24.7 9.4 30 10.8 SE 20 32 11 17 1019.5 1018.4 0.0
08/04:00pm 29.0 25.6 9.2 29 11.1 SE 17 26 9 14 1019.7 1018.6 0.0
08/03:30pm 28.5 25.4 8.9 29 10.9 SE 15 20 8 11 1020.0 1018.9 0.0
08/03:00pm 28.9 26.2 9.0 28 11.1 SE 13 24 7 13 1020.3 1019.2 0.0
08/02:30pm 28.4 25.8 9.3 30 10.7 S 13 24 7 13 1020.6 1019.5 0.0
08/02:00pm 27.4 24.5 9.8 33 9.9 ESE 15 22 8 12 1021.1 1020.0 0.0
08/01:30pm 27.1 24.7 10.1 34 9.6 E 13 20 7 11 1021.2 1020.1 0.0
08/01:00pm 27.0 24.0 10.6 35 9.3 SSE 17 26 9 14 1021.4 1020.3 0.0
08/12:30pm 25.7 22.7 10.7 39 8.5 SE 17 24 9 13 1021.7 1020.6 0.0
08/12:00pm 25.6 22.8 11.2 40 8.2 SSE 17 24 9 13 1022.1 1020.9 0.0
08/11:30am 25.2 22.8 11.3 41 7.9 SE 15 20 8 11 1022.2 1021.0 0.0
08/11:00am 23.8 22.4 12.3 48 6.6 ESE 11 17 6 9 1022.4 1021.2 0.0
08/10:30am 22.9 21.1 12.0 50 6.2 ESE 13 20 7 11 1022.5 1021.4 0.0
08/10:00am 21.6 19.7 11.7 53 5.6 ESE 13 20 7 11 1022.5 1021.4 0.0
08/09:30am 20.9 19.2 12.5 58 4.8 ESE 13 19 7 10 1022.4 1021.2 0.0
08/09:00am 20.5 19.1 12.2 59 4.7 SE 11 15 6 8 1022.2 1021.0 0.0
08/08:30am 19.1 18.4 11.9 63 4.0 S 7 11 4 6 1022.0 1020.8 0.0
08/08:00am 17.4 17.7 12.2 71 2.9 NE 2 7 1 4 1021.7 1020.6 0.0
08/07:30am 14.8 15.5 12.3 85 1.4 CALM 0 6 0 3 1021.5 1020.4 0.0
08/07:00am 13.6 13.0 11.8 89 1.0 NNE 6 9 3 5 1021.3 1020.2 0.0
08/06:30am 13.5 12.9 11.6 88 1.0 NNW 6 9 3 5 1021.1 1020.0 0.0
08/06:00am 14.3 13.5 11.7 84 1.4 SSE 7 15 4 8 1020.9 1019.8 0.0
08/05:30am 14.5 12.6 11.7 83 1.5 SE 13 22 7 12 1020.8 1019.7 0.0
08/05:00am 14.8 13.2 11.7 82 1.7 SSE 11 20 6 11 1020.7 1019.6 0.0
08/04:30am 15.3 12.1 11.8 79 1.9 SSE 20 30 11 16 1020.5 1019.4 0.0
08/04:00am 15.1 12.3 11.4 78 2.0 SE 17 26 9 14 1020.5 1019.4 0.0
08/03:30am 14.6 13.3 11.3 80 1.8 SSE 9 13 5 7 1020.5 1019.4 0.0
08/03:00am 14.0 12.7 11.2 83 1.5 SE 9 13 5 7 1020.5 1019.4 0.0
08/02:30am 15.0 12.6 11.5 79 1.9 SSE 15 22 8 12 1020.6 1019.5 0.0
08/02:00am 14.4 13.6 11.6 83 1.5 ESE 7 13 4 7 1020.6 1019.5 0.0
08/01:30am 13.8 14.1 12.2 90 0.9 ESE 2 7 1 4 1020.7 1019.6 0.0
08/01:00am 14.4 14.1 12.6 89 1.0 E 6 6 3 3 1020.6 1019.5 0.0
08/12:30am 14.8 14.9 12.6 87 1.2 ESE 4 6 2 3 1020.7 1019.6 0.0
08/12:00am 15.7 15.3 13.0 84 1.5 ESE 7 9 4 5 1020.7 1019.6 0.0
 
Date/Time
CDT
Temp
°C
App
Temp
°C
Dew
Point
Rel
Hum
%
Delta-T
°C
Wind Press
QNH
hPa
Press
MSL
hPa
Rain
since 9 am
mm
Dir
 
Spd
km/h
Gust
km/h
Spd
kts
Gust
kts
07/11:30pm 16.3 16.6 13.3 82 1.7 ESE 4 7 2 4 1020.7 1019.6 0.0
07/11:00pm 17.0 16.1 13.7 81 1.9 SE 11 15 6 8 1020.5 1019.4 0.0
07/10:30pm 17.7 16.5 14.1 79 2.1 SE 13 19 7 10 1020.4 1019.3 0.0
07/10:00pm 18.9 18.2 14.3 74 2.7 SE 11 17 6 9 1020.2 1019.1 0.0
07/09:30pm 20.2 20.4 14.8 71 3.2 SE 7 13 4 7 1019.7 1018.6 0.0
07/09:00pm 21.7 22.1 15.2 66 3.9 ESE 7 11 4 6 1019.3 1018.2 0.0
07/08:30pm 23.7 23.7 15.1 58 5.2 SSE 9 13 5 7 1019.0 1017.8 0.0
07/08:00pm 26.0 25.9 15.0 50 6.7 SSE 9 13 5 7 1018.6 1017.4 0.0
07/07:30pm 27.9 26.2 12.4 38 9.1 WSW 13 19 7 10 1017.9 1016.8 0.0
07/07:00pm 28.9 25.6 10.9 32 10.4 WSW 19 28 10 15 1017.4 1016.3 0.0
07/06:30pm 29.7 25.5 9.8 29 11.3 WSW 22 33 12 18 1017.1 1016.0 0.0
07/06:00pm 30.3 25.7 8.1 25 12.3 WSW 22 30 12 16 1016.9 1015.8 0.0
07/05:30pm 31.0 26.7 7.7 23 12.9 WSW 20 32 11 17 1016.8 1015.7 0.0
07/05:00pm 31.3 26.8 7.0 22 13.3 WSW 20 32 11 17 1016.7 1015.6 0.0
07/04:30pm 31.4 27.2 8.1 23 13.0 W 20 28 11 15 1016.6 1015.5 0.0
07/04:00pm 31.6 27.8 7.6 22 13.3 W 17 28 9 15 1016.7 1015.6 0.0
07/03:30pm 31.6 27.0 6.7 21 13.6 W 20 28 11 15 1016.9 1015.8 0.0
07/03:00pm 31.7 27.7 8.1 23 13.2 W 19 28 10 15 1017.1 1016.0 0.0
07/02:30pm 31.8 29.2 10.7 27 12.3 WSW 15 24 8 13 1017.4 1016.3 0.0
07/02:00pm 30.7 27.7 9.4 26 12.1 WSW 15 28 8 15 1017.5 1016.4 0.0
07/01:30pm 30.4 28.0 9.9 28 11.7 WSW 13 24 7 13 1017.6 1016.5 0.0
07/01:00pm 30.3 28.0 10.5 29 11.4 WSW 13 19 7 10 1017.8 1016.7 0.0
07/12:30pm 29.3 27.5 10.7 31 10.7 WNW 11 17 6 9 1018.1 1016.9 0.0
07/12:00pm 29.3 27.5 10.7 31 10.7 W 11 17 6 9 1018.2 1017.0 0.0
07/11:30am 28.0 27.0 10.9 34 9.8 WSW 7 13 4 7 1018.2 1017.0 0.0
07/11:00am 26.8 25.9 11.3 38 8.9 WNW 7 13 4 7 1018.4 1017.2 0.0
07/10:30am 25.8 25.5 12.6 44 7.7 WNW 6 7 3 4 1018.4 1017.2 0.0
07/10:00am 24.7 24.2 12.7 47 7.0 NE 7 13 4 7 1018.3 1017.1 0.0
07/09:30am 22.7 23.0 13.3 55 5.5 NNW 4 7 2 4 1018.5 1017.3 0.0
07/09:00am 20.9 22.1 13.9 64 4.1 CALM 0 6 0 3 1018.6 1017.4 0.0
07/08:30am 19.1 19.7 14.3 73 2.8 SW 4 7 2 4 1018.4 1017.2 0.0
07/08:00am 17.5 19.1 14.8 84 1.6 CALM 0 0 0 0 1018.2 1017.0 0.0
07/07:30am 16.2 16.5 14.6 90 0.9 SW 6 9 3 5 1017.7 1016.6 0.0
07/07:00am 15.1 15.2 14.0 93 0.6 S 6 7 3 4 1017.4 1016.3 0.0
07/06:30am 15.1 14.4 13.1 88 1.1 SSW 9 11 5 6 1017.1 1016.0 0.0
07/06:00am 15.4 14.3 12.1 81 1.8 SW 9 11 5 6 1016.3 1015.2 0.0
07/05:30am 18.1 17.7 11.2 64 3.8 ENE 4 7 2 4 1015.8 1014.6 0.0
07/05:00am 18.6 16.8 10.9 61 4.2 ENE 11 13 6 7 1015.6 1014.4 0.0
07/04:30am 16.7 16.3 12.4 76 2.4 NNE 6 9 3 5 1015.6 1014.4 0.0
07/04:00am 17.0 16.4 12.3 74 2.6 E 7 11 4 6 1015.7 1014.5 0.0
07/03:30am 16.9 17.8 12.8 77 2.3 CALM 0 0 0 0 1015.9 1014.7 0.0
07/03:00am 18.0 17.0 12.3 69 3.2 SSE 9 13 5 7 1016.1 1015.0 0.0
07/02:30am 17.9 17.5 12.4 70 3.1 SSE 6 13 3 7 1016.3 1015.2 0.0
07/02:00am 16.6 16.9 14.9 90 1.0 NNE 7 11 4 6 1016.3 1015.2 0.0
07/01:30am 16.0 16.7 13.5 85 1.4 E 2 7 1 4 1016.2 1015.1 0.0
07/01:00am 16.1 17.1 13.3 83 1.6 CALM 0 0 0 0 1016.5 1015.4 0.0
07/12:30am 16.2 16.2 13.6 84 1.5 W 6 7 3 4 1016.6 1015.5 0.0
07/12:00am 17.0 17.0 13.5 80 2.0 NE 6 7 3 4 1016.5 1015.4 0.0
 
Date/Time
CDT
Temp
°C
App
Temp
°C
Dew
Point
Rel
Hum
%
Delta-T
°C
Wind Press
QNH
hPa
Press
MSL
hPa
Rain
since 9 am
mm
Dir
 
Spd
km/h
Gust
km/h
Spd
kts
Gust
kts
06/11:30pm 17.9 17.7 13.5 75 2.5 NE 7 9 4 5 1016.3 1015.2 0.0
06/11:00pm 18.7 19.9 13.7 72 2.9 CALM 0 0 0 0 1016.3 1015.2 0.0
06/10:30pm 20.0 20.2 12.0 60 4.5 NE 2 6 1 3 1016.0 1014.8 0.0
06/10:00pm 21.4 20.9 12.5 57 5.1 W 7 11 4 6 1015.7 1014.5 0.0
06/09:30pm 23.5 21.9 10.2 43 7.4 SSW 9 15 5 8 1015.3 1014.1 0.0
06/09:00pm 24.8 23.0 9.4 37 8.5 SW 9 15 5 8 1014.9 1013.7 0.0
06/08:30pm 25.3 23.7 10.1 38 8.5 S 9 11 5 6 1014.6 1013.4 0.0
06/08:00pm 27.4 24.7 8.8 31 10.3 WSW 13 17 7 9 1014.3 1013.1 0.0
06/07:30pm 29.0 25.0 8.2 27 11.5 WSW 19 28 10 15 1013.7 1012.6 0.0
06/07:00pm 29.7 25.1 8.0 25 12.0 WSW 22 35 12 19 1013.2 1012.1 0.0
06/06:30pm 30.6 25.1 6.1 21 13.2 W 24 35 13 19 1013.1 1012.0 0.0
06/06:00pm 31.1 25.7 6.4 21 13.4 WSW 24 35 13 19 1012.9 1011.8 0.0
06/05:30pm 32.2 29.4 7.0 20 13.9 S 11 19 6 10 1013.0 1011.9 0.0
06/05:00pm 32.4 28.5 1.4 14 15.6 SSE 11 17 6 9 1012.9 1011.8 0.0
06/04:30pm 32.5 29.2 2.5 15 15.4 NNW 9 13 5 7 1013.0 1011.9 0.0
06/04:00pm 32.0 28.4 3.2 16 14.9 NE 11 20 6 11 1013.4 1012.3 0.0
06/03:30pm 32.1 29.1 4.1 17 14.7 ENE 9 13 5 7 1013.7 1012.6 0.0
06/03:00pm 31.8 29.2 3.1 16 14.8 WNW 6 9 3 5 1014.3 1013.1 0.0
06/02:30pm 31.5 27.8 4.2 18 14.3 NE 13 22 7 12 1014.5 1013.3 0.0
06/02:00pm 30.8 27.4 2.0 16 14.5 NE 9 19 5 10 1014.7 1013.5 0.0
06/01:30pm 31.3 28.3 4.2 18 14.2 NE 9 19 5 10 1015.0 1013.8 0.0
06/01:00pm 30.4 26.6 4.0 18 13.7 ENE 13 19 7 10 1015.4 1014.2 0.0
06/12:30pm 29.8 27.0 5.1 21 13.0 NNE 9 13 5 7 1015.8 1014.6 0.0

Other Formats:

Comma delimited format used in spreadsheet applications
http://www.bom.gov.au/fwo/IDS60801/IDS60801.94681.axf

JavaScript Object Notation format (JSON) in row-major order
http://www.bom.gov.au/fwo/IDS60801/IDS60801.94681.json